Accueil
METAR-TAF:

METAR-TAF

Aéroports :

Kimmirut, Nunavut, Canada

latitude: 62-51N, longitude: 069-53W, altitude: 53 m

Observation

Le bulletin a été fait il y a 5 heures et 30 minutes, à 21:00 UTC
Vent 3 kt de ouest/nord-ouest, variant entre ouest/sud-ouest et nord
Température -25°C
Humidité 69%
Pression 1015 hPa
Visibilité: 24.1 km
Quelques nuages à une hauteur de 1400 ft
Nuages épars à une hauteur de 9000 ft
Nuages fragmentés à une hauteur de 35000 ft
cristaux de glace

METAR: CYLC 222100Z 30003KT 250V350 15SM IC FEW014 SCT090 BKN350 M25/M29 A2996 RMK ST2AS2CI2 -23.6/-29.0/0.1/1 TRACE LOOSE LAST STFD OBS/NEXT 231200Z SLP157

Heure: 21:30 (02:30 UTC)


TAF: absent

Observations et prévisions météorologiques de plus de 4000 aéroports (messages METAR et TAF).

Les stations disponibles sont représentées par des disques jaunes et rouges sur la carte.

Passer la souris dessus pour voir le nom de la station.

Cliquer dessus pour voir les observations et prévisions météorologiques.

Pour changer de carte: cliquez sur les boutons verts avec une croix noire pour zoomer, sur le bouton vert avec un tiret pour effectuer un zoom arrière, ou sur les flèches vertes pour les cartes adjacentes.


METAR-TAF: